Druzhba, Ukraine
Current Conditions -  °F | °C
As of 9:00 AM on Wednesday 28 Jan 2015 (Local Time) from UUBP Reporting Station
Haze Haze  
Wind Chill: 17°   Ceiling: 300
Heat Index: 23°   Visibility: 1.8mi
Dew Point: 23°   Wind: 4mph
Humidity: 100%   Direction: 180°S
Pressure: 29.94"   Gusts: NA
Location:  52.04°N, 33.94°E
Report Text: UUBP 280600Z 18002MPS 3000 BR OVC003 M05/M05 Q1014 NOSIG SC///RMK QBB100 QFE742
Loading
Personal Weather Stations






























Interactive Weather Map New forecast layout! Learn more

10-Day Weather Forecast

Advertisements
Track Severe Weather on mobile